createdAt,value
2018-09-08T00:06:55.078Z,1018.79
2018-09-08T00:28:42.845Z,1018.83
2018-09-08T00:30:47.483Z,1018.84
2018-09-08T00:32:14.282Z,1018.84
2018-09-08T00:33:41.565Z,1018.85
2018-09-08T00:35:09.036Z,1018.89
2018-09-08T00:36:35.621Z,1018.89
2018-09-08T01:28:36.165Z,1018.97
2018-09-08T01:30:02.656Z,1018.97
2018-09-08T01:31:29.356Z,1019.00
2018-09-08T01:32:56.770Z,1019.01
2018-09-08T01:34:24.094Z,1019.03
2018-09-08T01:35:51.545Z,1019.05
2018-09-08T01:37:18.856Z,1019.04
2018-09-08T03:23:54.640Z,1018.98
2018-09-08T03:25:21.365Z,1019.00
2018-09-08T03:26:48.226Z,1018.99
2018-09-08T03:28:15.329Z,1018.96
2018-09-08T03:29:41.920Z,1018.97
2018-09-08T03:31:10.345Z,1019.01
2018-09-08T03:32:36.276Z,1019.00
2018-09-08T03:48:26.213Z,1019.24
2018-09-08T03:49:52.958Z,1019.23
2018-09-08T03:51:20.246Z,1019.28
2018-09-08T03:55:02.554Z,1019.29
2018-09-08T03:56:29.507Z,1019.31
2018-09-08T03:57:56.851Z,1019.31
2018-09-08T03:59:24.210Z,1019.35
2018-09-08T04:00:53.552Z,1019.38
2018-09-08T04:02:17.704Z,1019.39
2018-09-08T04:03:43.909Z,1019.41
2018-09-08T04:05:10.711Z,1019.38
2018-09-08T04:06:38.088Z,1019.40
2018-09-08T04:08:05.551Z,1019.35
2018-09-08T04:09:31.725Z,1019.31
2018-09-08T04:15:59.579Z,1019.42
2018-09-08T04:17:25.308Z,1019.44
2018-09-08T04:18:52.377Z,1019.45
2018-09-08T04:20:26.887Z,1019.43
2018-09-08T04:21:45.205Z,1019.42
2018-09-08T04:23:12.423Z,1019.42
2018-09-08T04:24:39.586Z,1019.44
2018-09-08T04:26:06.814Z,1019.45
2018-09-08T04:27:33.899Z,1019.44
2018-09-08T04:29:00.508Z,1019.45
2018-09-08T04:30:27.792Z,1019.42
2018-09-08T04:31:55.235Z,1019.41
2018-09-08T04:33:22.468Z,1019.43
2018-09-08T04:34:49.747Z,1019.46
2018-09-08T04:36:17.185Z,1019.47
2018-09-08T04:37:43.961Z,1019.51
2018-09-08T04:39:11.405Z,1019.52
2018-09-08T04:40:37.734Z,1019.54
2018-09-08T04:42:05.231Z,1019.51
2018-09-08T04:43:32.520Z,1019.53
2018-09-08T04:44:59.772Z,1019.54
2018-09-08T04:46:26.962Z,1019.56
2018-09-08T04:47:54.489Z,1019.59
2018-09-08T04:49:22.037Z,1019.61
2018-09-08T04:50:49.274Z,1019.62
2018-09-08T04:52:16.861Z,1019.64
2018-09-08T04:53:44.199Z,1019.62
2018-09-08T04:55:11.594Z,1019.60
2018-09-08T04:56:38.916Z,1019.60
2018-09-08T04:58:06.292Z,1019.60
2018-09-08T04:59:33.699Z,1019.60
2018-09-08T05:01:00.328Z,1019.58
2018-09-08T05:02:27.800Z,1019.59
2018-09-08T05:03:55.294Z,1019.60
2018-09-08T05:05:22.760Z,1019.60
2018-09-08T05:06:50.073Z,1019.60
2018-09-08T05:08:17.372Z,1019.65
2018-09-08T05:09:44.799Z,1019.65
2018-09-08T05:11:12.008Z,1019.66
2018-09-08T05:12:39.324Z,1019.65
2018-09-08T05:14:05.752Z,1019.65
2018-09-08T05:15:32.864Z,1019.65
2018-09-08T05:16:59.599Z,1019.61
2018-09-08T05:18:27.041Z,1019.59
2018-09-08T05:19:54.366Z,1019.55
2018-09-08T05:21:21.658Z,1019.56
2018-09-08T05:22:48.378Z,1019.58
2018-09-08T05:24:15.669Z,1019.59
2018-09-08T05:25:43.209Z,1019.63
2018-09-08T05:27:10.369Z,1019.63
2018-09-08T05:28:37.850Z,1019.61
2018-09-08T05:30:05.090Z,1019.63
2018-09-08T05:31:31.779Z,1019.62
2018-09-08T05:32:59.164Z,1019.64
2018-09-08T05:34:26.529Z,1019.66
2018-09-08T05:35:53.806Z,1019.66
2018-09-08T05:37:20.493Z,1019.66
2018-09-08T05:38:47.680Z,1019.67
2018-09-08T05:40:15.107Z,1019.65
2018-09-08T05:41:42.520Z,1019.68
2018-09-08T05:43:09.054Z,1019.69
2018-09-08T05:44:35.855Z,1019.71
2018-09-08T05:46:02.887Z,1019.72
2018-09-08T05:47:29.715Z,1019.73
2018-09-08T05:48:56.509Z,1019.75
2018-09-08T05:50:23.319Z,1019.75
2018-09-08T05:51:50.750Z,1019.78
2018-09-08T05:53:17.986Z,1019.78
2018-09-08T05:54:45.283Z,1019.79
2018-09-08T05:56:12.477Z,1019.82
2018-09-08T05:57:39.176Z,1019.82
2018-09-08T05:59:06.083Z,1019.79
2018-09-08T06:00:33.589Z,1019.80
2018-09-08T06:02:00.551Z,1019.82
2018-09-08T06:03:28.057Z,1019.84
2018-09-08T06:04:55.249Z,1019.78
2018-09-08T06:06:22.405Z,1019.78
2018-09-08T06:07:49.941Z,1019.77
2018-09-08T06:09:17.191Z,1019.77
2018-09-08T06:10:43.698Z,1019.78
2018-09-08T06:12:10.469Z,1019.84
2018-09-08T06:13:37.740Z,1019.87
2018-09-08T06:15:05.047Z,1019.89
2018-09-08T06:16:32.096Z,1019.89
2018-09-08T06:17:59.505Z,1019.89
2018-09-08T06:19:27.014Z,1019.90
2018-09-08T06:20:54.637Z,1019.88
2018-09-08T06:22:22.168Z,1019.89
2018-09-08T06:23:49.291Z,1019.85
2018-09-08T06:25:16.192Z,1019.82
2018-09-08T06:26:43.851Z,1019.85
2018-09-08T06:28:11.132Z,1019.84
2018-09-08T06:29:38.538Z,1019.90
2018-09-08T06:31:05.557Z,1019.88
2018-09-08T06:32:32.107Z,1019.91
2018-09-08T06:33:59.401Z,1019.88
2018-09-08T06:35:26.374Z,1019.92
2018-09-08T06:36:53.606Z,1019.94
2018-09-08T06:38:20.539Z,1019.92
2018-09-08T06:39:47.945Z,1019.96
2018-09-08T06:41:15.308Z,1019.99
2018-09-08T06:42:42.038Z,1020.01
2018-09-08T06:44:09.288Z,1020.03
2018-09-08T06:45:36.601Z,1020.05
2018-09-08T06:47:04.105Z,1020.09
2018-09-08T06:48:31.035Z,1020.08
2018-09-08T06:49:57.285Z,1020.10
2018-09-08T06:51:24.595Z,1020.12
2018-09-08T06:52:51.415Z,1020.13
2018-09-08T06:54:18.670Z,1020.09
2018-09-08T06:55:45.948Z,1020.11
2018-09-08T06:57:13.326Z,1020.04
2018-09-08T06:58:40.710Z,1020.09
2018-09-08T07:00:08.072Z,1020.05
2018-09-08T07:01:34.873Z,1020.07
2018-09-08T07:03:02.467Z,1020.07
2018-09-08T07:04:29.865Z,1020.08
2018-09-08T07:05:57.263Z,1020.08
2018-09-08T07:07:24.388Z,1020.07
2018-09-08T07:08:51.845Z,1020.12
2018-09-08T07:10:19.276Z,1020.13
2018-09-08T07:11:46.775Z,1020.10
2018-09-08T07:13:14.155Z,1020.13
2018-09-08T07:14:41.538Z,1020.17
2018-09-08T07:16:08.977Z,1020.12
2018-09-08T07:17:36.541Z,1020.11
2018-09-08T07:19:03.649Z,1020.13
2018-09-08T07:20:31.424Z,1020.16
2018-09-08T07:21:57.791Z,1020.16
2018-09-08T07:23:25.266Z,1020.16
2018-09-08T07:24:52.558Z,1020.16
2018-09-08T07:26:20.075Z,1020.19
2018-09-08T07:27:47.487Z,1020.25
2018-09-08T07:29:14.794Z,1020.22
2018-09-08T07:30:42.157Z,1020.24
2018-09-08T07:32:09.528Z,1020.26
2018-09-08T07:33:36.809Z,1020.25
2018-09-08T07:35:04.202Z,1020.27
2018-09-08T07:36:31.614Z,1020.28
2018-09-08T07:37:59.067Z,1020.29
2018-09-08T07:39:26.569Z,1020.28
2018-09-08T07:40:53.292Z,1020.31
2018-09-08T07:42:30.839Z,1020.35
2018-09-08T07:43:47.898Z,1020.34
2018-09-08T07:45:15.161Z,1020.39
2018-09-08T07:46:42.403Z,1020.42
2018-09-08T07:48:10.025Z,1020.38
2018-09-08T07:49:36.948Z,1020.41
2018-09-08T07:51:04.186Z,1020.39
2018-09-08T07:52:31.608Z,1020.39
2018-09-08T07:53:59.088Z,1020.40
2018-09-08T07:55:25.908Z,1020.35
2018-09-08T07:56:53.140Z,1020.36
2018-09-08T07:58:20.181Z,1020.39
2018-09-08T07:59:47.904Z,1020.37
2018-09-08T08:01:15.158Z,1020.41
2018-09-08T08:02:41.688Z,1020.40
2018-09-08T08:04:08.962Z,1020.44
2018-09-08T08:05:36.491Z,1020.39
2018-09-08T08:07:03.625Z,1020.36
2018-09-08T08:08:30.852Z,1020.38
2018-09-08T08:09:58.421Z,1020.37
2018-09-08T08:11:25.845Z,1020.34
2018-09-08T08:12:52.774Z,1020.33
2018-09-08T08:14:20.131Z,1020.35
2018-09-08T08:15:47.579Z,1020.35
2018-09-08T08:17:13.952Z,1020.35
2018-09-08T08:18:41.403Z,1020.32
2018-09-08T08:20:08.739Z,1020.34
2018-09-08T08:21:35.961Z,1020.36
2018-09-08T08:23:03.353Z,1020.38
2018-09-08T08:24:30.479Z,1020.39
2018-09-08T08:25:57.979Z,1020.40
2018-09-08T08:27:25.403Z,1020.43
2018-09-08T08:28:52.916Z,1020.44
2018-09-08T08:30:20.486Z,1020.47
2018-09-08T08:31:47.943Z,1020.46
2018-09-08T08:33:15.312Z,1020.46
2018-09-08T08:34:42.282Z,1020.47
2018-09-08T08:36:09.632Z,1020.53
2018-09-08T08:37:37.011Z,1020.55
2018-09-08T08:39:04.525Z,1020.58
2018-09-08T08:40:31.728Z,1020.59
2018-09-08T08:41:58.975Z,1020.59
2018-09-08T08:43:26.305Z,1020.55
2018-09-08T08:44:53.762Z,1020.62
2018-09-08T08:46:21.181Z,1020.60
2018-09-08T08:47:48.567Z,1020.60
2018-09-08T08:49:16.138Z,1020.60
2018-09-08T08:50:42.562Z,1020.61
2018-09-08T08:52:09.288Z,1020.63
2018-09-08T08:53:36.092Z,1020.59
2018-09-08T08:55:03.399Z,1020.64
2018-09-08T08:56:30.711Z,1020.61
2018-09-08T08:57:58.073Z,1020.63
2018-09-08T08:59:24.522Z,1020.62
2018-09-08T09:00:50.918Z,1020.60
2018-09-08T09:02:18.208Z,1020.57
2018-09-08T09:03:45.698Z,1020.63
2018-09-08T09:05:12.658Z,1020.60
2018-09-08T09:06:39.319Z,1020.58
2018-09-08T09:08:06.586Z,1020.57
2018-09-08T09:09:34.214Z,1020.57
2018-09-08T09:11:01.282Z,1020.60
2018-09-08T09:12:27.490Z,1020.59
2018-09-08T09:13:54.988Z,1020.57
2018-09-08T09:15:22.795Z,1020.53
2018-09-08T09:16:49.796Z,1020.55
2018-09-08T09:18:17.212Z,1020.51
2018-09-08T09:19:43.630Z,1020.56
2018-09-08T09:21:10.695Z,1020.49
2018-09-08T09:22:38.250Z,1020.50
2018-09-08T09:24:05.695Z,1020.46
2018-09-08T09:25:33.009Z,1020.45
2018-09-08T09:27:00.165Z,1020.49
2018-09-08T09:28:28.511Z,1020.49
2018-09-08T09:29:54.689Z,1020.50
2018-09-08T09:31:22.161Z,1020.49
2018-09-08T09:32:49.137Z,1020.51
2018-09-08T09:34:15.734Z,1020.50
2018-09-08T09:35:43.013Z,1020.51
2018-09-08T09:37:10.623Z,1020.55
2018-09-08T09:38:38.141Z,1020.53
2018-09-08T09:40:05.442Z,1020.56
2018-09-08T09:41:32.949Z,1020.55
2018-09-08T09:43:00.066Z,1020.59
2018-09-08T09:44:27.520Z,1020.56
2018-09-08T09:45:54.957Z,1020.57
2018-09-08T09:47:22.543Z,1020.58
2018-09-08T09:48:49.037Z,1020.59
2018-09-08T09:50:16.476Z,1020.60
2018-09-08T09:51:42.717Z,1020.62
2018-09-08T09:53:09.856Z,1020.64
2018-09-08T09:54:37.106Z,1020.64
2018-09-08T09:56:04.244Z,1020.61
2018-09-08T09:57:31.343Z,1020.70
2018-09-08T09:58:58.664Z,1020.66
2018-09-08T10:00:26.258Z,1020.66
2018-09-08T10:01:53.003Z,1020.68
2018-09-08T10:03:20.620Z,1020.68
2018-09-08T10:04:48.159Z,1020.67
2018-09-08T10:06:15.984Z,1020.65
2018-09-08T10:07:42.234Z,1020.66
2018-09-08T10:09:09.622Z,1020.65
2018-09-08T10:10:36.910Z,1020.66
2018-09-08T10:12:04.085Z,1020.62
2018-09-08T10:13:31.272Z,1020.64
2018-09-08T10:14:58.357Z,1020.67
2018-09-08T10:16:25.835Z,1020.62
2018-09-08T10:17:53.314Z,1020.61
2018-09-08T10:19:20.724Z,1020.57
2018-09-08T10:20:46.931Z,1020.63
2018-09-08T10:22:14.348Z,1020.63
2018-09-08T10:23:40.829Z,1020.68
2018-09-08T10:25:08.573Z,1020.66
2018-09-08T10:26:35.889Z,1020.67
2018-09-08T10:28:03.361Z,1020.76
2018-09-08T10:29:30.897Z,1020.74
2018-09-08T10:30:58.255Z,1020.78
2018-09-08T10:32:25.700Z,1020.75
2018-09-08T10:33:53.345Z,1020.78
2018-09-08T10:35:20.855Z,1020.74
2018-09-08T10:36:48.257Z,1020.76
2018-09-08T10:38:15.383Z,1020.75
2018-09-08T10:39:42.917Z,1020.78
2018-09-08T10:41:10.377Z,1020.75
2018-09-08T10:42:37.806Z,1020.76
2018-09-08T10:44:05.035Z,1020.77
2018-09-08T10:45:32.160Z,1020.79
2018-09-08T10:46:59.435Z,1020.81
2018-09-08T10:48:26.911Z,1020.79
2018-09-08T10:49:54.195Z,1020.81
2018-09-08T10:51:21.678Z,1020.79
2018-09-08T10:52:49.197Z,1020.73
2018-09-08T10:54:16.931Z,1020.77
2018-09-08T10:55:43.725Z,1020.79
2018-09-08T10:57:12.248Z,1020.74
2018-09-08T10:58:38.443Z,1020.73
2018-09-08T11:00:05.819Z,1020.73
2018-09-08T11:01:32.842Z,1020.76
2018-09-08T11:03:00.094Z,1020.74
2018-09-08T11:04:27.677Z,1020.74
2018-09-08T11:05:54.359Z,1020.76
2018-09-08T11:07:21.859Z,1020.74
2018-09-08T11:08:49.215Z,1020.76
2018-09-08T11:10:16.779Z,1020.77
2018-09-08T11:11:44.311Z,1020.77
2018-09-08T11:13:11.716Z,1020.80
2018-09-08T11:14:39.229Z,1020.78
2018-09-08T11:16:05.866Z,1020.77
2018-09-08T11:17:32.957Z,1020.77
2018-09-08T11:19:00.258Z,1020.76
2018-09-08T11:20:27.891Z,1020.74
2018-09-08T11:21:54.501Z,1020.76
2018-09-08T11:23:22.069Z,1020.67
2018-09-08T11:24:49.137Z,1020.71
2018-09-08T11:26:16.599Z,1020.73
2018-09-08T11:27:44.140Z,1020.73
2018-09-08T11:29:11.547Z,1020.66
2018-09-08T11:30:39.108Z,1020.73
2018-09-08T11:32:06.482Z,1020.71
2018-09-08T11:33:33.671Z,1020.74
2018-09-08T11:35:01.218Z,1020.68
2018-09-08T11:36:29.405Z,1020.67
2018-09-08T11:37:55.219Z,1020.69
2018-09-08T11:39:22.632Z,1020.73
2018-09-08T11:40:50.158Z,1020.68
2018-09-08T11:42:17.611Z,1020.74
2018-09-08T11:43:45.192Z,1020.77
2018-09-08T11:45:12.644Z,1020.72
2018-09-08T11:46:40.214Z,1020.70
2018-09-08T11:48:07.211Z,1020.70
2018-09-08T11:49:34.678Z,1020.68
2018-09-08T11:51:10.247Z,1020.68
2018-09-08T11:52:29.056Z,1020.66
2018-09-08T11:53:56.675Z,1020.72
2018-09-08T11:55:24.159Z,1020.74
2018-09-08T11:56:51.607Z,1020.74
2018-09-08T11:58:19.173Z,1020.75
2018-09-08T11:59:46.626Z,1020.74
2018-09-08T12:01:13.325Z,1020.78
2018-09-08T12:02:39.825Z,1020.82
2018-09-08T12:04:07.359Z,1020.77
2018-09-08T12:05:33.939Z,1020.75
2018-09-08T12:07:01.405Z,1020.74
2018-09-08T12:08:28.583Z,1020.77
2018-09-08T12:09:56.135Z,1020.78
2018-09-08T12:11:23.545Z,1020.80
2018-09-08T12:12:51.123Z,1020.80
2018-09-08T12:14:18.588Z,1020.80
2018-09-08T12:15:45.991Z,1020.73
2018-09-08T12:17:13.567Z,1020.74
2018-09-08T12:18:41.073Z,1020.70
2018-09-08T12:20:08.753Z,1020.69
2018-09-08T12:21:36.163Z,1020.70
2018-09-08T12:23:03.625Z,1020.74
2018-09-08T12:24:30.928Z,1020.69
2018-09-08T12:25:58.204Z,1020.70
2018-09-08T12:27:25.863Z,1020.68
2018-09-08T12:28:53.246Z,1020.75
2018-09-08T12:30:20.751Z,1020.73
2018-09-08T12:31:48.163Z,1020.75
2018-09-08T12:33:15.598Z,1020.73
2018-09-08T12:34:43.048Z,1020.74
2018-09-08T12:36:09.525Z,1020.79
2018-09-08T12:37:36.209Z,1020.82
2018-09-08T12:39:03.709Z,1020.77
2018-09-08T12:40:39.085Z,1020.77
2018-09-08T12:41:57.493Z,1020.78
2018-09-08T12:43:24.992Z,1020.77
2018-09-08T12:44:52.322Z,1020.80
2018-09-08T12:46:19.775Z,1020.75
2018-09-08T12:47:47.086Z,1020.73
2018-09-08T12:49:14.940Z,1020.69
2018-09-08T12:50:42.430Z,1020.67
2018-09-08T12:52:10.019Z,1020.67
2018-09-08T12:53:37.627Z,1020.63
2018-09-08T12:55:05.226Z,1020.63
2018-09-08T12:56:32.446Z,1020.62
2018-09-08T12:57:59.976Z,1020.66
2018-09-08T12:59:27.612Z,1020.71
2018-09-08T13:00:54.867Z,1020.71
2018-09-08T13:02:22.541Z,1020.74
2018-09-08T13:03:49.687Z,1020.73
2018-09-08T13:05:17.057Z,1020.73
2018-09-08T13:06:44.656Z,1020.72
2018-09-08T13:08:11.525Z,1020.73
2018-09-08T13:09:38.423Z,1020.75
2018-09-08T13:11:05.889Z,1020.75
2018-09-08T13:12:33.179Z,1020.73
2018-09-08T13:14:00.486Z,1020.73
2018-09-08T13:15:28.047Z,1020.85
2018-09-08T13:16:55.703Z,1020.85
2018-09-08T13:18:23.258Z,1020.81
2018-09-08T13:19:50.303Z,1020.84
2018-09-08T13:21:17.179Z,1020.89
2018-09-08T13:22:44.815Z,1020.87
2018-09-08T13:24:12.220Z,1020.91
2018-09-08T13:25:39.812Z,1020.95
2018-09-08T13:27:07.211Z,1020.97
2018-09-08T13:28:34.526Z,1020.98
2018-09-08T13:30:01.849Z,1021.06
2018-09-08T13:31:28.972Z,1021.11
2018-09-08T13:32:55.910Z,1021.07
2018-09-08T13:34:23.507Z,1021.07
2018-09-08T13:35:50.655Z,1021.08
2018-09-08T13:37:18.296Z,1021.07
2018-09-08T13:38:45.792Z,1021.07
2018-09-08T13:40:13.182Z,1021.08
2018-09-08T13:41:40.833Z,1021.06
2018-09-08T13:43:08.171Z,1021.08
2018-09-08T13:44:35.664Z,1021.08
2018-09-08T13:46:02.557Z,1021.10
2018-09-08T13:47:29.962Z,1021.15
2018-09-08T13:48:56.495Z,1021.11
2018-09-08T13:50:23.977Z,1021.12
2018-09-08T13:51:51.570Z,1021.13
2018-09-08T13:53:19.011Z,1021.12
2018-09-08T13:54:46.572Z,1021.12
2018-09-08T13:56:14.006Z,1021.13
2018-09-08T13:57:41.533Z,1021.14
2018-09-08T13:59:09.202Z,1021.20
2018-09-08T14:00:36.648Z,1021.22
2018-09-08T14:02:03.696Z,1021.24
2018-09-08T14:03:30.587Z,1021.25
2018-09-08T14:04:58.037Z,1021.29
2018-09-08T14:06:25.473Z,1021.24
2018-09-08T14:07:53.042Z,1021.22
2018-09-08T14:09:19.904Z,1021.22
2018-09-08T14:10:47.392Z,1021.24
2018-09-08T14:12:14.775Z,1021.25
2018-09-08T14:13:41.617Z,1021.26
2018-09-08T14:15:09.022Z,1021.24
2018-09-08T14:16:36.623Z,1021.23
2018-09-08T14:18:03.993Z,1021.24
2018-09-08T14:19:31.047Z,1021.26
2018-09-08T14:21:06.533Z,1021.22
2018-09-08T14:22:25.053Z,1021.19
2018-09-08T14:23:52.459Z,1021.15
2018-09-08T14:25:20.309Z,1021.13
2018-09-08T14:26:47.671Z,1021.13
2018-09-08T14:28:15.193Z,1021.10
2018-09-08T14:29:42.613Z,1021.12
2018-09-08T14:31:10.206Z,1021.11
2018-09-08T14:32:37.667Z,1021.14
2018-09-08T14:34:05.298Z,1021.15
2018-09-08T14:35:32.432Z,1021.18
2018-09-08T14:36:59.812Z,1021.15
2018-09-08T14:38:27.491Z,1021.16
2018-09-08T14:39:54.543Z,1021.14
2018-09-08T14:41:21.146Z,1021.16
2018-09-08T14:42:48.344Z,1021.14
2018-09-08T14:44:15.016Z,1021.12
2018-09-08T14:45:41.686Z,1021.12
2018-09-08T14:47:08.176Z,1021.12
2018-09-08T14:48:35.510Z,1021.13
2018-09-08T14:50:02.923Z,1021.13
2018-09-08T14:51:30.461Z,1021.14
2018-09-08T14:52:56.846Z,1021.14
2018-09-08T14:54:24.440Z,1021.14
2018-09-08T14:55:51.998Z,1021.12
2018-09-08T14:57:20.685Z,1021.11
2018-09-08T14:58:47.126Z,1021.09
2018-09-08T15:00:14.513Z,1021.08
2018-09-08T15:01:42.048Z,1021.06
2018-09-08T15:03:09.256Z,1021.04
2018-09-08T15:04:36.453Z,1020.99
2018-09-08T15:06:03.002Z,1021.00
2018-09-08T15:07:30.230Z,1021.03
2018-09-08T15:08:57.763Z,1021.04
2018-09-08T15:10:25.311Z,1021.06
2018-09-08T15:11:52.980Z,1021.05
2018-09-08T15:13:20.585Z,1021.05
2018-09-08T15:14:48.025Z,1021.06
2018-09-08T15:16:15.536Z,1021.07
2018-09-08T15:17:43.104Z,1021.06
2018-09-08T15:19:10.507Z,1021.06
2018-09-08T15:20:38.067Z,1021.06
2018-09-08T15:22:05.086Z,1021.06
2018-09-08T15:23:32.374Z,1021.07
2018-09-08T15:24:59.919Z,1021.08
2018-09-08T15:26:27.307Z,1021.06
2018-09-08T15:27:54.795Z,1021.03
2018-09-08T15:29:22.314Z,1021.02
2018-09-08T15:30:49.792Z,1021.05
2018-09-08T15:32:17.428Z,1021.07
2018-09-08T15:33:44.856Z,1021.09
2018-09-08T15:35:12.444Z,1021.12
2018-09-08T15:36:40.058Z,1021.12
2018-09-08T15:38:07.438Z,1021.12
2018-09-08T15:39:35.054Z,1021.11
2018-09-08T15:41:02.478Z,1021.14
2018-09-08T15:42:29.948Z,1021.11
2018-09-08T15:43:57.501Z,1021.10
2018-09-08T15:45:24.957Z,1021.10
2018-09-08T15:46:52.183Z,1021.09
2018-09-08T15:48:19.562Z,1021.07
2018-09-08T15:49:47.198Z,1021.03
2018-09-08T15:51:14.562Z,1021.01
2018-09-08T15:52:41.984Z,1021.01
2018-09-08T15:54:09.552Z,1021.00
2018-09-08T15:55:37.114Z,1021.05
2018-09-08T15:57:04.534Z,1021.09
2018-09-08T15:58:32.239Z,1021.11
2018-09-08T15:59:59.665Z,1021.11
2018-09-08T16:01:27.101Z,1021.10
2018-09-08T16:02:54.072Z,1021.10
2018-09-08T16:04:21.440Z,1021.10
2018-09-08T16:05:48.884Z,1021.09
2018-09-08T16:07:16.386Z,1021.08
2018-09-08T16:08:43.935Z,1021.08
2018-09-08T16:10:11.241Z,1021.07
2018-09-08T16:11:38.814Z,1021.07
2018-09-08T16:13:06.284Z,1021.06
2018-09-08T16:14:33.906Z,1021.07
2018-09-08T16:16:01.308Z,1021.07
2018-09-08T16:17:28.782Z,1021.08
2018-09-08T16:18:56.265Z,1021.08
2018-09-08T16:20:22.966Z,1021.08
2018-09-08T16:21:50.649Z,1021.11
2018-09-08T16:23:18.186Z,1021.12
2018-09-08T16:24:45.771Z,1021.12
2018-09-08T16:26:13.044Z,1021.13
2018-09-08T16:27:40.524Z,1021.12
2018-09-08T16:29:08.011Z,1021.14
2018-09-08T16:30:35.509Z,1021.16
2018-09-08T16:32:02.684Z,1021.19
2018-09-08T16:33:30.198Z,1021.21
2018-09-08T16:34:57.437Z,1021.21
2018-09-08T16:36:24.912Z,1021.20
2018-09-08T16:37:52.484Z,1021.20
2018-09-08T16:39:19.944Z,1021.18
2018-09-08T16:40:47.269Z,1021.19
2018-09-08T16:42:15.021Z,1021.20
2018-09-08T16:43:41.796Z,1021.20
2018-09-08T16:45:09.387Z,1021.19
2018-09-08T16:46:36.127Z,1021.21
2018-09-08T16:48:03.208Z,1021.23
2018-09-08T16:49:30.599Z,1021.24
2018-09-08T16:50:58.130Z,1021.24
2018-09-08T16:52:25.731Z,1021.23
2018-09-08T16:53:53.125Z,1021.27
2018-09-08T16:55:20.701Z,1021.27
2018-09-08T16:56:47.337Z,1021.29
2018-09-08T16:58:14.842Z,1021.30
2018-09-08T16:59:42.165Z,1021.30
2018-09-08T17:01:09.320Z,1021.32
2018-09-08T17:02:36.456Z,1021.31
2018-09-08T17:04:04.019Z,1021.31
2018-09-08T17:05:31.327Z,1021.30
2018-09-08T17:06:58.543Z,1021.32
2018-09-08T17:08:25.667Z,1021.31
2018-09-08T17:09:53.240Z,1021.33
2018-09-08T17:11:19.717Z,1021.35
2018-09-08T17:12:47.103Z,1021.36
2018-09-08T17:14:14.122Z,1021.37
2018-09-08T17:15:41.506Z,1021.35
2018-09-08T17:17:08.340Z,1021.36
2018-09-08T17:18:35.147Z,1021.40
2018-09-08T17:20:01.513Z,1021.41
2018-09-08T17:21:28.068Z,1021.45
2018-09-08T17:22:55.553Z,1021.45
2018-09-08T17:24:22.157Z,1021.46
2018-09-08T17:25:49.311Z,1021.49
2018-09-08T17:27:15.788Z,1021.51
2018-09-08T17:28:42.408Z,1021.51
2018-09-08T17:30:09.011Z,1021.52
2018-09-08T17:31:36.584Z,1021.53
2018-09-08T17:33:04.154Z,1021.58
2018-09-08T17:34:34.448Z,1021.59
2018-09-08T17:35:58.710Z,1021.59
2018-09-08T17:37:25.133Z,1021.59
2018-09-08T17:38:52.595Z,1021.59
2018-09-08T17:40:20.027Z,1021.58
2018-09-08T17:41:47.456Z,1021.59
2018-09-08T17:43:14.986Z,1021.60
2018-09-08T17:44:42.175Z,1021.63
2018-09-08T17:46:09.013Z,1021.63
2018-09-08T17:47:36.281Z,1021.64
2018-09-08T17:49:03.782Z,1021.66
2018-09-08T17:50:31.220Z,1021.65
2018-09-08T17:51:58.328Z,1021.68
2018-09-08T17:53:25.805Z,1021.69
2018-09-08T17:54:53.334Z,1021.71
2018-09-08T17:56:20.608Z,1021.76
2018-09-08T17:57:48.072Z,1021.76
2018-09-08T17:59:14.389Z,1021.82
2018-09-08T18:00:42.061Z,1021.83
2018-09-08T18:02:09.354Z,1021.86
2018-09-08T18:03:35.760Z,1021.86
2018-09-08T18:05:02.788Z,1021.87
2018-09-08T18:06:30.351Z,1021.89
2018-09-08T18:07:57.914Z,1021.93
2018-09-08T18:09:24.066Z,1021.93
2018-09-08T18:10:51.523Z,1021.95
2018-09-08T18:12:19.039Z,1021.96
2018-09-08T18:13:46.579Z,1021.98
2018-09-08T18:15:14.165Z,1022.01
2018-09-08T18:16:41.510Z,1022.02
2018-09-08T18:18:09.027Z,1022.05
2018-09-08T18:19:36.533Z,1022.04
2018-09-08T18:21:04.045Z,1022.06
2018-09-08T18:22:30.928Z,1022.08
2018-09-08T18:23:57.760Z,1022.09
2018-09-08T18:25:24.157Z,1022.12
2018-09-08T18:26:51.682Z,1022.13
2018-09-08T18:28:17.514Z,1022.14
2018-09-08T18:29:45.092Z,1022.14
2018-09-08T18:31:12.647Z,1022.16
2018-09-08T18:32:38.852Z,1022.18
2018-09-08T18:34:06.394Z,1022.19
2018-09-08T18:35:33.349Z,1022.22
2018-09-08T18:37:01.048Z,1022.23
2018-09-08T18:38:28.154Z,1022.27
2018-09-08T18:39:55.645Z,1022.29
2018-09-08T18:41:23.173Z,1022.32
2018-09-08T18:42:50.443Z,1022.33
2018-09-08T18:44:18.096Z,1022.36
2018-09-08T18:45:44.337Z,1022.36
2018-09-08T18:47:12.033Z,1022.38
2018-09-08T18:48:39.512Z,1022.37
2018-09-08T18:50:05.972Z,1022.37
2018-09-08T18:51:34.606Z,1022.39
2018-09-08T18:53:00.547Z,1022.38
2018-09-08T18:54:27.996Z,1022.42
2018-09-08T18:55:55.452Z,1022.45
2018-09-08T18:57:22.931Z,1022.43
2018-09-08T18:58:50.173Z,1022.43
2018-09-08T19:00:17.734Z,1022.43
2018-09-08T19:01:45.184Z,1022.44
2018-09-08T19:03:12.716Z,1022.46
2018-09-08T19:04:38.801Z,1022.46
2018-09-08T19:06:06.196Z,1022.46
2018-09-08T19:07:33.099Z,1022.45
2018-09-08T19:09:00.042Z,1022.45
2018-09-08T19:10:27.691Z,1022.50
2018-09-08T19:11:55.088Z,1022.53
2018-09-08T19:13:22.546Z,1022.55
2018-09-08T19:14:49.991Z,1022.58
2018-09-08T19:16:16.737Z,1022.56
2018-09-08T19:17:43.624Z,1022.57
2018-09-08T19:19:11.031Z,1022.61
2018-09-08T19:20:38.337Z,1022.63
2018-09-08T19:22:05.257Z,1022.64
2018-09-08T19:23:32.766Z,1022.68
2018-09-08T19:25:00.140Z,1022.69
2018-09-08T19:26:27.716Z,1022.70
2018-09-08T19:27:55.275Z,1022.70
2018-09-08T19:29:22.575Z,1022.72
2018-09-08T19:30:50.013Z,1022.72
2018-09-08T19:32:17.430Z,1022.71
2018-09-08T19:33:43.868Z,1022.71
2018-09-08T19:35:11.385Z,1022.70
2018-09-08T19:36:38.724Z,1022.70
2018-09-08T19:38:06.142Z,1022.70
2018-09-08T19:39:33.360Z,1022.73
2018-09-08T19:41:00.225Z,1022.73
2018-09-08T19:42:26.984Z,1022.74
2018-09-08T19:43:53.470Z,1022.74
2018-09-08T19:45:20.715Z,1022.76
2018-09-08T19:46:48.260Z,1022.77
2018-09-08T19:48:15.542Z,1022.77
2018-09-08T19:49:42.019Z,1022.78
2018-09-08T19:51:08.970Z,1022.77
2018-09-08T19:52:36.394Z,1022.79
2018-09-08T19:54:02.960Z,1022.79
2018-09-08T19:55:29.858Z,1022.81
2018-09-08T19:56:57.391Z,1022.82
2018-09-08T19:58:24.759Z,1022.83
2018-09-08T19:59:52.322Z,1022.82
2018-09-08T20:01:19.490Z,1022.81
2018-09-08T20:02:46.567Z,1022.82
2018-09-08T20:04:14.096Z,1022.81
2018-09-08T20:05:41.537Z,1022.82
2018-09-08T20:07:08.923Z,1022.83
2018-09-08T20:08:36.052Z,1022.82
2018-09-08T20:10:03.234Z,1022.83
2018-09-08T20:11:30.864Z,1022.83
2018-09-08T20:12:57.191Z,1022.81
2018-09-08T20:14:24.636Z,1022.84
2018-09-08T20:15:52.222Z,1022.84
2018-09-08T20:17:19.587Z,1022.84
2018-09-08T20:18:46.202Z,1022.84
2018-09-08T20:20:13.400Z,1022.84
2018-09-08T20:21:40.736Z,1022.83
2018-09-08T20:23:08.034Z,1022.85
2018-09-08T20:24:35.290Z,1022.83
2018-09-08T20:26:02.323Z,1022.83
2018-09-08T20:27:29.613Z,1022.80
2018-09-08T20:28:57.272Z,1022.82
2018-09-08T20:30:24.455Z,1022.81
2018-09-08T20:31:51.933Z,1022.80
2018-09-08T20:33:19.388Z,1022.79
2018-09-08T20:34:46.707Z,1022.80
2018-09-08T20:36:14.177Z,1022.79
2018-09-08T20:37:41.034Z,1022.80
2018-09-08T20:39:08.574Z,1022.81
2018-09-08T20:40:35.958Z,1022.84
2018-09-08T20:42:02.754Z,1022.85
2018-09-08T20:43:30.091Z,1022.86
2018-09-08T20:44:57.381Z,1022.86
2018-09-08T20:46:24.760Z,1022.87
2018-09-08T20:47:52.081Z,1022.85
2018-09-08T20:49:18.691Z,1022.86
2018-09-08T20:50:45.215Z,1022.87
2018-09-08T20:52:12.623Z,1022.86
2018-09-08T20:53:39.987Z,1022.86
2018-09-08T20:55:06.972Z,1022.87
2018-09-08T20:56:34.385Z,1022.86
2018-09-08T20:58:01.855Z,1022.87
2018-09-08T20:59:29.127Z,1022.87